sensor_id;sensor_type;location;lat;lon;timestamp;pressure;altitude;pressure_sealevel;temperature;humidity
21433;BME280;18592;49.708;10.900;2022-08-21T00:00:20;98637.47;;;22.04;57.53
21433;BME280;18592;49.708;10.900;2022-08-21T00:02:24;98637.47;;;22.04;57.48
21433;BME280;18592;49.708;10.900;2022-08-21T00:04:26;98636.66;;;22.04;57.63
21433;BME280;18592;49.708;10.900;2022-08-21T00:06:30;98643.03;;;22.04;57.71
21433;BME280;18592;49.708;10.900;2022-08-21T00:08:32;98638.63;;;22.03;57.80
21433;BME280;18592;49.708;10.900;2022-08-21T00:10:34;98633.09;;;22.03;57.77
21433;BME280;18592;49.708;10.900;2022-08-21T00:12:36;98635.34;;;22.01;57.68
21433;BME280;18592;49.708;10.900;2022-08-21T00:14:38;98637.31;;;22.01;58.04
21433;BME280;18592;49.708;10.900;2022-08-21T00:16:40;98642.06;;;22.00;57.97
21433;BME280;18592;49.708;10.900;2022-08-21T00:18:42;98633.72;;;22.00;57.89
21433;BME280;18592;49.708;10.900;2022-08-21T00:20:45;98631.25;;;21.99;57.70
21433;BME280;18592;49.708;10.900;2022-08-21T00:22:47;98628.00;;;21.97;58.00
21433;BME280;18592;49.708;10.900;2022-08-21T00:24:48;98634.38;;;21.97;57.99
21433;BME280;18592;49.708;10.900;2022-08-21T00:26:51;98626.38;;;21.96;58.07
21433;BME280;18592;49.708;10.900;2022-08-21T00:28:53;98618.34;;;21.94;58.05
21433;BME280;18592;49.708;10.900;2022-08-21T00:30:55;98622.28;;;21.93;57.90
21433;BME280;18592;49.708;10.900;2022-08-21T00:32:59;98610.66;;;21.91;58.11
21433;BME280;18592;49.708;10.900;2022-08-21T00:35:01;98608.22;;;21.90;57.75
21433;BME280;18592;49.708;10.900;2022-08-21T00:37:02;98624.06;;;21.89;57.93
21433;BME280;18592;49.708;10.900;2022-08-21T00:39:06;98621.63;;;21.88;57.90
21433;BME280;18592;49.708;10.900;2022-08-21T00:41:09;98626.34;;;21.87;58.18
21433;BME280;18592;49.708;10.900;2022-08-21T00:43:33;98631.41;;;21.85;58.12
21433;BME280;18592;49.708;10.900;2022-08-21T00:45:36;98625.00;;;21.85;58.36
21433;BME280;18592;49.708;10.900;2022-08-21T00:47:39;98621.41;;;21.84;58.46
21433;BME280;18592;49.708;10.900;2022-08-21T00:49:41;98616.97;;;21.83;58.04
21433;BME280;18592;49.708;10.900;2022-08-21T00:51:49;98604.56;;;21.81;58.07
21433;BME280;18592;49.708;10.900;2022-08-21T00:53:56;98610.94;;;21.81;58.13
21433;BME280;18592;49.708;10.900;2022-08-21T00:56:00;98606.84;;;21.79;58.36
21433;BME280;18592;49.708;10.900;2022-08-21T00:58:06;98611.56;;;21.78;58.42
21433;BME280;18592;49.708;10.900;2022-08-21T01:00:14;98603.59;;;21.77;58.18
21433;BME280;18592;49.708;10.900;2022-08-21T01:02:17;98608.31;;;21.76;58.20
21433;BME280;18592;49.708;10.900;2022-08-21T01:04:20;98607.50;;;21.76;58.47
21433;BME280;18592;49.708;10.900;2022-08-21T01:06:23;98606.69;;;21.75;58.30
21433;BME280;18592;49.708;10.900;2022-08-21T01:08:25;98610.59;;;21.74;58.35
21433;BME280;18592;49.708;10.900;2022-08-21T01:10:29;98608.94;;;21.73;58.24
21433;BME280;18592;49.708;10.900;2022-08-21T01:12:32;98601.78;;;21.72;58.41
21433;BME280;18592;49.708;10.900;2022-08-21T01:14:37;98610.13;;;21.72;58.46
21433;BME280;18592;49.708;10.900;2022-08-21T01:16:42;98615.16;;;21.70;58.21
21433;BME280;18592;49.708;10.900;2022-08-21T01:18:46;98607.16;;;21.69;58.25
21433;BME280;18592;49.708;10.900;2022-08-21T01:21:10;98607.00;;;21.65;58.34
21433;BME280;18592;49.708;10.900;2022-08-21T01:23:13;98601.75;;;21.64;58.53
21433;BME280;18592;49.708;10.900;2022-08-21T01:25:16;98604.53;;;21.64;58.15
21433;BME280;18592;49.708;10.900;2022-08-21T01:27:18;98612.03;;;21.63;58.48
21433;BME280;18592;49.708;10.900;2022-08-21T01:29:45;98602.72;;;21.59;58.48
21433;BME280;18592;49.708;10.900;2022-08-21T01:31:48;98597.50;;;21.58;58.39
21433;BME280;18592;49.708;10.900;2022-08-21T01:33:50;98596.69;;;21.57;58.38
21433;BME280;18592;49.708;10.900;2022-08-21T01:35:52;98598.63;;;21.57;58.19
21433;BME280;18592;49.708;10.900;2022-08-21T01:37:54;98597.31;;;21.54;58.56
21433;BME280;18592;49.708;10.900;2022-08-21T01:39:56;98596.00;;;21.51;58.38
21433;BME280;18592;49.708;10.900;2022-08-21T01:41:57;98597.97;;;21.51;58.53
21433;BME280;18592;49.708;10.900;2022-08-21T01:43:59;98601.56;;;21.51;58.68
21433;BME280;18592;49.708;10.900;2022-08-21T01:46:03;98604.66;;;21.50;58.32
21433;BME280;18592;49.708;10.900;2022-08-21T01:48:04;98599.13;;;21.50;58.21
21433;BME280;18592;49.708;10.900;2022-08-21T01:50:10;98606.13;;;21.47;58.12
21433;BME280;18592;49.708;10.900;2022-08-21T01:52:12;98600.88;;;21.46;58.51
21433;BME280;18592;49.708;10.900;2022-08-21T01:54:14;98598.94;;;21.46;58.34
21433;BME280;18592;49.708;10.900;2022-08-21T01:56:16;98595.31;;;21.46;58.27
21433;BME280;18592;49.708;10.900;2022-08-21T01:58:19;98599.56;;;21.43;58.16
21433;BME280;18592;49.708;10.900;2022-08-21T02:00:21;98595.66;;;21.44;58.10
21433;BME280;18592;49.708;10.900;2022-08-21T02:02:26;98594.84;;;21.44;58.51
21433;BME280;18592;49.708;10.900;2022-08-21T02:04:28;98594.34;;;21.42;58.07
21433;BME280;18592;49.708;10.900;2022-08-21T02:06:29;98596.63;;;21.40;58.44
21433;BME280;18592;49.708;10.900;2022-08-21T02:08:31;98599.41;;;21.40;58.42
21433;BME280;18592;49.708;10.900;2022-08-21T02:10:33;98598.56;;;21.39;58.59
21433;BME280;18592;49.708;10.900;2022-08-21T02:12:35;98593.34;;;21.38;58.53
21433;BME280;18592;49.708;10.900;2022-08-21T02:14:37;98597.25;;;21.37;58.21
21433;BME280;18592;49.708;10.900;2022-08-21T02:16:39;98591.22;;;21.35;58.65
21433;BME280;18592;49.708;10.900;2022-08-21T02:18:41;98595.63;;;21.36;58.64
21433;BME280;18592;49.708;10.900;2022-08-21T02:20:46;98599.53;;;21.35;58.51
21433;BME280;18592;49.708;10.900;2022-08-21T02:22:55;98605.41;;;21.33;58.76
21433;BME280;18592;49.708;10.900;2022-08-21T02:24:57;98601.81;;;21.33;58.63
21433;BME280;18592;49.708;10.900;2022-08-21T02:26:59;98601.00;;;21.32;58.51
21433;BME280;18592;49.708;10.900;2022-08-21T02:29:01;98595.75;;;21.31;58.67
21433;BME280;18592;49.708;10.900;2022-08-21T02:31:03;98590.22;;;21.31;58.69
21433;BME280;18592;49.708;10.900;2022-08-21T02:33:06;98601.31;;;21.31;58.36
21433;BME280;18592;49.708;10.900;2022-08-21T02:35:09;98599.34;;;21.31;58.80
21433;BME280;18592;49.708;10.900;2022-08-21T02:37:12;98602.13;;;21.31;58.50
21433;BME280;18592;49.708;10.900;2022-08-21T02:39:13;98609.63;;;21.31;58.55
21433;BME280;18592;49.708;10.900;2022-08-21T02:41:18;98598.53;;;21.31;58.99
21433;BME280;18592;49.708;10.900;2022-08-21T02:43:22;98596.59;;;21.31;58.59
21433;BME280;18592;49.708;10.900;2022-08-21T02:45:26;98606.84;;;21.31;58.75
21433;BME280;18592;49.708;10.900;2022-08-21T02:47:30;98598.53;;;21.31;58.86
21433;BME280;18592;49.708;10.900;2022-08-21T02:49:32;98610.44;;;21.31;58.58
21433;BME280;18592;49.708;10.900;2022-08-21T02:51:33;98603.59;;;21.29;58.85
21433;BME280;18592;49.708;10.900;2022-08-21T02:53:35;98603.59;;;21.29;58.79
21433;BME280;18592;49.708;10.900;2022-08-21T02:55:37;98609.13;;;21.29;58.73
21433;BME280;18592;49.708;10.900;2022-08-21T02:57:39;98602.75;;;21.28;58.71
21433;BME280;18592;49.708;10.900;2022-08-21T02:59:44;98606.69;;;21.27;58.98
21433;BME280;18592;49.708;10.900;2022-08-21T03:01:45;98600.00;;;21.28;58.83
21433;BME280;18592;49.708;10.900;2022-08-21T03:03:47;98596.41;;;21.28;58.91
21433;BME280;18592;49.708;10.900;2022-08-21T03:05:52;98603.09;;;21.27;59.03
21433;BME280;18592;49.708;10.900;2022-08-21T03:07:54;98593.94;;;21.26;58.82
21433;BME280;18592;49.708;10.900;2022-08-21T03:09:56;98598.69;;;21.26;58.74
21433;BME280;18592;49.708;10.900;2022-08-21T03:11:58;98597.56;;;21.27;59.04
21433;BME280;18592;49.708;10.900;2022-08-21T03:13:59;98600.31;;;21.27;59.00
21433;BME280;18592;49.708;10.900;2022-08-21T03:16:01;98597.56;;;21.27;59.14
21433;BME280;18592;49.708;10.900;2022-08-21T03:18:06;98596.72;;;21.26;58.84
21433;BME280;18592;49.708;10.900;2022-08-21T03:20:09;98594.78;;;21.27;58.81
21433;BME280;18592;49.708;10.900;2022-08-21T03:22:10;98602.75;;;21.28;59.18
21433;BME280;18592;49.708;10.900;2022-08-21T03:24:12;98603.91;;;21.27;58.84
21433;BME280;18592;49.708;10.900;2022-08-21T03:26:14;98596.41;;;21.28;59.02
21433;BME280;18592;49.708;10.900;2022-08-21T03:28:20;98597.56;;;21.27;58.77
21433;BME280;18592;49.708;10.900;2022-08-21T03:30:22;98603.91;;;21.27;59.25
21433;BME280;18592;49.708;10.900;2022-08-21T03:32:24;98592.50;;;21.29;58.92
21433;BME280;18592;49.708;10.900;2022-08-21T03:34:26;98598.03;;;21.29;59.35
21433;BME280;18592;49.708;10.900;2022-08-21T03:36:27;98597.22;;;21.28;59.08
21433;BME280;18592;49.708;10.900;2022-08-21T03:38:30;98602.75;;;21.28;59.03
21433;BME280;18592;49.708;10.900;2022-08-21T03:40:32;98598.88;;;21.29;59.15
21433;BME280;18592;49.708;10.900;2022-08-21T03:42:35;98602.75;;;21.28;59.29
21433;BME280;18592;49.708;10.900;2022-08-21T03:44:37;98593.63;;;21.28;59.31
21433;BME280;18592;49.708;10.900;2022-08-21T03:46:39;98597.22;;;21.28;59.14
21433;BME280;18592;49.708;10.900;2022-08-21T03:48:41;98604.72;;;21.28;59.41
21433;BME280;18592;49.708;10.900;2022-08-21T03:50:43;98593.63;;;21.28;59.17
21433;BME280;18592;49.708;10.900;2022-08-21T03:52:46;98601.94;;;21.28;59.20
21433;BME280;18592;49.708;10.900;2022-08-21T03:54:47;98609.97;;;21.29;59.13
21433;BME280;18592;49.708;10.900;2022-08-21T03:56:49;98613.03;;;21.28;59.49
21433;BME280;18592;49.708;10.900;2022-08-21T03:58:51;98607.47;;;21.28;59.50
21433;BME280;18592;49.708;10.900;2022-08-21T04:00:56;98602.75;;;21.28;59.37
21433;BME280;18592;49.708;10.900;2022-08-21T04:02:58;98600.31;;;21.27;59.28
21433;BME280;18592;49.708;10.900;2022-08-21T04:05:00;98604.72;;;21.28;59.70
21433;BME280;18592;49.708;10.900;2022-08-21T04:07:03;98606.34;;;21.29;59.64
21433;BME280;18592;49.708;10.900;2022-08-21T04:09:04;98608.63;;;21.27;59.24
21433;BME280;18592;49.708;10.900;2022-08-21T04:11:07;98613.03;;;21.28;59.21
21433;BME280;18592;49.708;10.900;2022-08-21T04:13:08;98608.31;;;21.28;59.52
21433;BME280;18592;49.708;10.900;2022-08-21T04:15:10;98613.03;;;21.28;59.38
21433;BME280;18592;49.708;10.900;2022-08-21T04:17:12;98610.59;;;21.26;59.68
21433;BME280;18592;49.708;10.900;2022-08-21T04:19:13;98615.00;;;21.27;59.52
21433;BME280;18592;49.708;10.900;2022-08-21T04:21:15;98622.19;;;21.28;59.33
21433;BME280;18592;49.708;10.900;2022-08-21T04:23:18;98623.00;;;21.29;59.49
21433;BME280;18592;49.708;10.900;2022-08-21T04:25:24;98625.28;;;21.27;59.77
21433;BME280;18592;49.708;10.900;2022-08-21T04:27:28;98624.94;;;21.28;59.38
21433;BME280;18592;49.708;10.900;2022-08-21T04:29:30;98636.88;;;21.29;59.87
21433;BME280;18592;49.708;10.900;2022-08-21T04:31:32;98628.06;;;21.27;59.77
21433;BME280;18592;49.708;10.900;2022-08-21T04:33:35;98624.13;;;21.28;59.54
21433;BME280;18592;49.708;10.900;2022-08-21T04:35:36;98636.03;;;21.28;59.69
21433;BME280;18592;49.708;10.900;2022-08-21T04:37:38;98636.88;;;21.29;59.77
21433;BME280;18592;49.708;10.900;2022-08-21T04:39:42;98638.00;;;21.28;59.73
21433;BME280;18592;49.708;10.900;2022-08-21T04:41:44;98636.03;;;21.28;59.79
21433;BME280;18592;49.708;10.900;2022-08-21T04:43:45;98640.75;;;21.28;59.87
21433;BME280;18592;49.708;10.900;2022-08-21T04:45:48;98639.16;;;21.27;59.78
21433;BME280;18592;49.708;10.900;2022-08-21T04:47:52;98644.34;;;21.28;59.66
21433;BME280;18592;49.708;10.900;2022-08-21T04:49:54;98647.13;;;21.28;59.53
21433;BME280;18592;49.708;10.900;2022-08-21T04:51:55;98644.34;;;21.28;59.88
21433;BME280;18592;49.708;10.900;2022-08-21T04:54:09;98644.69;;;21.27;59.67
21433;BME280;18592;49.708;10.900;2022-08-21T04:56:23;98655.78;;;21.27;59.71
21433;BME280;18592;49.708;10.900;2022-08-21T04:58:28;98650.72;;;21.29;59.62
21433;BME280;18592;49.708;10.900;2022-08-21T05:00:30;98659.38;;;21.27;59.55
21433;BME280;18592;49.708;10.900;2022-08-21T05:02:31;98657.09;;;21.29;59.87
21433;BME280;18592;49.708;10.900;2022-08-21T05:04:37;98658.22;;;21.28;59.87
21433;BME280;18592;49.708;10.900;2022-08-21T05:06:41;98653.50;;;21.29;59.75
21433;BME280;18592;49.708;10.900;2022-08-21T05:08:47;98655.44;;;21.28;59.58
21433;BME280;18592;49.708;10.900;2022-08-21T05:10:50;98660.69;;;21.30;59.58
21433;BME280;18592;49.708;10.900;2022-08-21T05:12:52;98662.31;;;21.31;59.76
21433;BME280;18592;49.708;10.900;2022-08-21T05:14:54;98662.31;;;21.31;60.08
21433;BME280;18592;49.708;10.900;2022-08-21T05:16:55;98659.88;;;21.29;59.63
21433;BME280;18592;49.708;10.900;2022-08-21T05:18:57;98651.22;;;21.31;59.66
21433;BME280;18592;49.708;10.900;2022-08-21T05:20:59;98663.97;;;21.32;59.83
21433;BME280;18592;49.708;10.900;2022-08-21T05:23:06;98664.78;;;21.32;59.95
21433;BME280;18592;49.708;10.900;2022-08-21T05:25:10;98666.75;;;21.32;59.71
21433;BME280;18592;49.708;10.900;2022-08-21T05:27:13;98671.97;;;21.33;60.00
21433;BME280;18592;49.708;10.900;2022-08-21T05:29:18;98678.31;;;21.34;59.66
21433;BME280;18592;49.708;10.900;2022-08-21T05:31:20;98679.97;;;21.35;59.68
21433;BME280;18592;49.708;10.900;2022-08-21T05:33:22;98678.81;;;21.36;59.80
21433;BME280;18592;49.708;10.900;2022-08-21T05:35:24;98676.03;;;21.36;59.81
21433;BME280;18592;49.708;10.900;2022-08-21T05:37:26;98674.91;;;21.37;59.90
21433;BME280;18592;49.708;10.900;2022-08-21T05:39:27;98679.31;;;21.38;59.86
21433;BME280;18592;49.708;10.900;2022-08-21T05:41:49;98680.97;;;21.39;59.69
21433;BME280;18592;49.708;10.900;2022-08-21T05:43:51;98677.06;;;21.40;59.71
21433;BME280;18592;49.708;10.900;2022-08-21T05:45:53;98669.22;;;21.42;59.86
21433;BME280;18592;49.708;10.900;2022-08-21T05:47:54;98668.09;;;21.43;59.79
21433;BME280;18592;49.708;10.900;2022-08-21T05:49:56;98671.38;;;21.45;59.87
21433;BME280;18592;49.708;10.900;2022-08-21T05:51:58;98684.41;;;21.44;59.67
21433;BME280;18592;49.708;10.900;2022-08-21T05:54:00;98683.59;;;21.44;59.83
21433;BME280;18592;49.708;10.900;2022-08-21T05:56:02;98684.41;;;21.44;59.89
21433;BME280;18592;49.708;10.900;2022-08-21T05:58:05;98686.88;;;21.46;59.75
21433;BME280;18592;49.708;10.900;2022-08-21T06:00:08;98686.88;;;21.46;60.05
21433;BME280;18592;49.708;10.900;2022-08-21T06:02:13;98681.81;;;21.48;60.00
21433;BME280;18592;49.708;10.900;2022-08-21T06:04:15;98675.63;;;21.51;59.84
21433;BME280;18592;49.708;10.900;2022-08-21T06:06:17;98674.50;;;21.52;59.60
21433;BME280;18592;49.708;10.900;2022-08-21T06:08:20;98683.31;;;21.54;59.94
21433;BME280;18592;49.708;10.900;2022-08-21T06:10:22;98686.59;;;21.56;59.93
21433;BME280;18592;49.708;10.900;2022-08-21T06:12:23;98679.91;;;21.57;60.00
21433;BME280;18592;49.708;10.900;2022-08-21T06:14:26;98685.13;;;21.59;59.91
21433;BME280;18592;49.708;10.900;2022-08-21T06:16:29;98690.69;;;21.59;60.08
21433;BME280;18592;49.708;10.900;2022-08-21T06:18:30;98691.16;;;21.61;59.85
21433;BME280;18592;49.708;10.900;2022-08-21T06:20:32;98695.59;;;21.62;59.77
21433;BME280;18592;49.708;10.900;2022-08-21T06:24:35;98698.03;;;21.63;59.73
21433;BME280;18592;49.708;10.900;2022-08-21T06:26:37;98695.25;;;21.63;59.87
21433;BME280;18592;49.708;10.900;2022-08-21T06:28:40;98694.13;;;21.64;59.62
21433;BME280;18592;49.708;10.900;2022-08-21T06:30:42;98703.59;;;21.63;60.10
21433;BME280;18592;49.708;10.900;2022-08-21T06:32:44;98689.22;;;21.61;59.76
21433;BME280;18592;49.708;10.900;2022-08-21T06:34:45;98699.69;;;21.64;59.73
21433;BME280;18592;49.708;10.900;2022-08-21T06:38:48;98706.38;;;21.63;59.54
21433;BME280;18592;49.708;10.900;2022-08-21T06:40:52;98694.78;;;21.61;60.01
21433;BME280;18592;49.708;10.900;2022-08-21T06:42:54;98698.88;;;21.64;59.72
21433;BME280;18592;49.708;10.900;2022-08-21T06:44:56;98698.56;;;21.65;59.86
21433;BME280;18592;49.708;10.900;2022-08-21T06:46:58;98698.03;;;21.63;59.44
21433;BME280;18592;49.708;10.900;2022-08-21T06:49:00;98694.13;;;21.64;59.58
21433;BME280;18592;49.708;10.900;2022-08-21T06:51:02;98699.34;;;21.66;59.55
21433;BME280;18592;49.708;10.900;2022-08-21T06:53:11;98694.63;;;21.66;59.74
21433;BME280;18592;49.708;10.900;2022-08-21T06:55:13;98694.13;;;21.64;59.85
21433;BME280;18592;49.708;10.900;2022-08-21T06:57:23;98702.94;;;21.66;59.62
21433;BME280;18592;49.708;10.900;2022-08-21T06:59:26;98700.19;;;21.66;59.90
21433;BME280;18592;49.708;10.900;2022-08-21T07:01:28;98697.41;;;21.66;59.78
21433;BME280;18592;49.708;10.900;2022-08-21T07:03:36;98710.97;;;21.68;59.51
21433;BME280;18592;49.708;10.900;2022-08-21T07:05:38;98706.56;;;21.67;59.75
21433;BME280;18592;49.708;10.900;2022-08-21T07:07:40;98702.31;;;21.69;59.71
21433;BME280;18592;49.708;10.900;2022-08-21T07:09:42;98709.81;;;21.69;59.80
21433;BME280;18592;49.708;10.900;2022-08-21T07:11:46;98701.19;;;21.70;59.91
21433;BME280;18592;49.708;10.900;2022-08-21T07:13:51;98705.59;;;21.71;59.79
21433;BME280;18592;49.708;10.900;2022-08-21T07:15:55;98704.47;;;21.72;59.58
21433;BME280;18592;49.708;10.900;2022-08-21T07:18:04;98708.06;;;21.73;59.72
21433;BME280;18592;49.708;10.900;2022-08-21T07:20:07;98714.09;;;21.75;59.93
21433;BME280;18592;49.708;10.900;2022-08-21T07:22:08;98711.81;;;21.77;59.85
21433;BME280;18592;49.708;10.900;2022-08-21T07:24:11;98708.41;;;21.80;59.95
21433;BME280;18592;49.708;10.900;2022-08-21T07:26:17;98710.56;;;21.83;59.97
21433;BME280;18592;49.708;10.900;2022-08-21T07:28:19;98711.03;;;21.85;59.95
21433;BME280;18592;49.708;10.900;2022-08-21T07:30:22;98703.25;;;21.87;60.00
21433;BME280;18592;49.708;10.900;2022-08-21T07:32:24;98704.88;;;21.88;59.68
21433;BME280;18592;49.708;10.900;2022-08-21T07:34:26;98709.63;;;21.87;59.73
21433;BME280;18592;49.708;10.900;2022-08-21T07:36:27;98707.31;;;21.89;59.83
21433;BME280;18592;49.708;10.900;2022-08-21T07:38:29;98707.81;;;21.91;59.95
21433;BME280;18592;49.708;10.900;2022-08-21T07:40:31;98701.13;;;21.92;59.57
21433;BME280;18592;49.708;10.900;2022-08-21T07:42:32;98699.19;;;21.93;59.91
21433;BME280;18592;49.708;10.900;2022-08-21T07:44:34;98706.06;;;21.95;59.99
21433;BME280;18592;49.708;10.900;2022-08-21T07:46:36;98699.88;;;21.98;59.99
21433;BME280;18592;49.708;10.900;2022-08-21T07:48:38;98701.97;;;22.01;59.83
21433;BME280;18592;49.708;10.900;2022-08-21T07:50:40;98695.28;;;22.02;59.79
21433;BME280;18592;49.708;10.900;2022-08-21T07:52:43;98698.56;;;22.04;60.06
21433;BME280;18592;49.708;10.900;2022-08-21T07:54:44;98702.66;;;22.07;59.94
21433;BME280;18592;49.708;10.900;2022-08-21T07:56:46;98691.72;;;22.10;60.19
21433;BME280;18592;49.708;10.900;2022-08-21T07:58:48;98692.69;;;22.14;60.06
21433;BME280;18592;49.708;10.900;2022-08-21T08:00:50;98692.06;;;22.18;60.07
21433;BME280;18592;49.708;10.900;2022-08-21T08:02:52;98694.19;;;22.21;60.16
21433;BME280;18592;49.708;10.900;2022-08-21T08:05:02;98698.59;;;22.22;60.33
21433;BME280;18592;49.708;10.900;2022-08-21T08:07:05;98692.41;;;22.25;60.13
21433;BME280;18592;49.708;10.900;2022-08-21T08:09:07;98688.50;;;22.26;59.97
21433;BME280;18592;49.708;10.900;2022-08-21T08:11:09;98685.56;;;22.31;59.81
21433;BME280;18592;49.708;10.900;2022-08-21T08:13:12;98692.09;;;22.35;59.92
21433;BME280;18592;49.708;10.900;2022-08-21T08:15:18;98691.44;;;22.38;59.86
21433;BME280;18592;49.708;10.900;2022-08-21T08:17:21;98688.84;;;22.41;60.26
21433;BME280;18592;49.708;10.900;2022-08-21T08:19:24;98692.59;;;22.45;60.17
21433;BME280;18592;49.708;10.900;2022-08-21T08:21:26;98686.41;;;22.48;59.85
21433;BME280;18592;49.708;10.900;2022-08-21T08:23:28;98694.88;;;22.52;59.91
21433;BME280;18592;49.708;10.900;2022-08-21T08:25:31;98694.56;;;22.53;59.93
21433;BME280;18592;49.708;10.900;2022-08-21T08:27:37;98687.53;;;22.56;59.88
21433;BME280;18592;49.708;10.900;2022-08-21T08:29:39;98691.94;;;22.57;60.22
21433;BME280;18592;49.708;10.900;2022-08-21T08:31:41;98682.97;;;22.60;59.80
21433;BME280;18592;49.708;10.900;2022-08-21T08:33:43;98687.91;;;22.63;59.76
21433;BME280;18592;49.708;10.900;2022-08-21T08:35:46;98686.78;;;22.64;59.61
21433;BME280;18592;49.708;10.900;2022-08-21T08:37:49;98692.00;;;22.65;59.60
21433;BME280;18592;49.708;10.900;2022-08-21T08:39:53;98686.91;;;22.67;59.73
21433;BME280;18592;49.708;10.900;2022-08-21T08:44:28;98689.03;;;22.70;59.83
21433;BME280;18592;49.708;10.900;2022-08-21T08:46:47;98680.38;;;22.72;59.76
21433;BME280;18592;49.708;10.900;2022-08-21T08:49:00;98678.09;;;22.74;59.69
21433;BME280;18592;49.708;10.900;2022-08-21T08:51:09;98678.59;;;22.76;59.82
21433;BME280;18592;49.708;10.900;2022-08-21T08:53:19;98673.16;;;22.80;59.62
21433;BME280;18592;49.708;10.900;2022-08-21T08:55:27;98682.03;;;22.82;59.72
21433;BME280;18592;49.708;10.900;2022-08-21T08:57:31;98683.00;;;22.86;59.70
21433;BME280;18592;49.708;10.900;2022-08-21T08:59:41;98686.59;;;22.86;59.55
21433;BME280;18592;49.708;10.900;2022-08-21T09:01:45;98680.38;;;22.89;59.64
21433;BME280;18592;49.708;10.900;2022-08-21T09:03:50;98672.53;;;22.91;59.70
21433;BME280;18592;49.708;10.900;2022-08-21T09:06:28;98677.44;;;22.94;59.67
21433;BME280;18592;49.708;10.900;2022-08-21T09:08:54;98670.72;;;22.95;59.63
21433;BME280;18592;49.708;10.900;2022-08-21T09:11:12;98671.19;;;22.97;59.39
21433;BME280;18592;49.708;10.900;2022-08-21T09:13:21;98675.28;;;23.00;59.64
21433;BME280;18592;49.708;10.900;2022-08-21T09:15:32;98674.97;;;23.01;59.65
21433;BME280;18592;49.708;10.900;2022-08-21T09:20:23;98680.34;;;23.06;59.61
21433;BME280;18592;49.708;10.900;2022-08-21T09:22:48;98672.97;;;23.10;59.53
21433;BME280;18592;49.708;10.900;2022-08-21T09:25:04;98673.81;;;23.11;59.61
21433;BME280;18592;49.708;10.900;2022-08-21T09:27:12;98675.94;;;23.14;59.44
21433;BME280;18592;49.708;10.900;2022-08-21T09:29:17;98670.84;;;23.16;59.35
21433;BME280;18592;49.708;10.900;2022-08-21T09:31:29;98671.66;;;23.16;59.66
21433;BME280;18592;49.708;10.900;2022-08-21T09:33:31;98669.38;;;23.18;59.41
21433;BME280;18592;49.708;10.900;2022-08-21T09:35:32;98669.53;;;23.22;59.50
21433;BME280;18592;49.708;10.900;2022-08-21T09:37:50;98670.00;;;23.24;59.42
21433;BME280;18592;49.708;10.900;2022-08-21T09:39:53;98664.63;;;23.27;59.66
21433;BME280;18592;49.708;10.900;2022-08-21T09:42:03;98673.09;;;23.31;59.51
21433;BME280;18592;49.708;10.900;2022-08-21T09:44:07;98670.47;;;23.34;59.52
21433;BME280;18592;49.708;10.900;2022-08-21T09:46:19;98664.59;;;23.36;59.50
21433;BME280;18592;49.708;10.900;2022-08-21T09:48:24;98667.56;;;23.40;59.27
21433;BME280;18592;49.708;10.900;2022-08-21T09:50:27;98661.31;;;23.43;59.43
21433;BME280;18592;49.708;10.900;2022-08-21T09:52:30;98666.19;;;23.46;59.36
21433;BME280;18592;49.708;10.900;2022-08-21T09:54:37;98661.63;;;23.50;59.29
21433;BME280;18592;49.708;10.900;2022-08-21T09:56:56;98657.00;;;23.54;59.46
21433;BME280;18592;49.708;10.900;2022-08-21T10:01:27;98657.00;;;23.62;59.43
21433;BME280;18592;49.708;10.900;2022-08-21T10:03:29;98651.56;;;23.66;59.32
21433;BME280;18592;49.708;10.900;2022-08-21T10:05:31;98654.16;;;23.71;59.40
21433;BME280;18592;49.708;10.900;2022-08-21T10:07:36;98654.31;;;23.74;59.24
21433;BME280;18592;49.708;10.900;2022-08-21T10:09:39;98644.94;;;23.79;59.38
21433;BME280;18592;49.708;10.900;2022-08-21T10:11:56;98646.41;;;23.85;59.28
21433;BME280;18592;49.708;10.900;2022-08-21T10:16:17;98651.25;;;23.96;59.22
21433;BME280;18592;49.708;10.900;2022-08-21T10:18:38;98649.44;;;24.00;59.25
21433;BME280;18592;49.708;10.900;2022-08-21T10:20:45;98645.00;;;24.08;59.57
21433;BME280;18592;49.708;10.900;2022-08-21T10:23:12;98636.56;;;24.17;59.58
21433;BME280;18592;49.708;10.900;2022-08-21T10:25:28;98640.25;;;24.29;59.61
21433;BME280;18592;49.708;10.900;2022-08-21T10:30:00;98635.28;;;24.55;59.60
21433;BME280;18592;49.708;10.900;2022-08-21T10:34:52;98633.00;;;24.78;59.71
21433;BME280;18592;49.708;10.900;2022-08-21T10:37:01;98629.09;;;24.91;59.41
21433;BME280;18592;49.708;10.900;2022-08-21T10:39:21;98632.38;;;25.05;59.57
21433;BME280;18592;49.708;10.900;2022-08-21T10:41:50;98628.63;;;25.22;59.52
21433;BME280;18592;49.708;10.900;2022-08-21T10:44:16;98628.41;;;25.39;59.52
21433;BME280;18592;49.708;10.900;2022-08-21T10:49:05;98626.47;;;25.76;59.63
21433;BME280;18592;49.708;10.900;2022-08-21T10:51:24;98631.50;;;25.95;59.89
21433;BME280;18592;49.708;10.900;2022-08-21T10:53:41;98626.13;;;26.14;60.18
21433;BME280;18592;49.708;10.900;2022-08-21T10:55:55;98633.56;;;26.34;59.61
21433;BME280;18592;49.708;10.900;2022-08-21T10:58:02;98624.19;;;26.54;60.11
21433;BME280;18592;49.708;10.900;2022-08-21T11:00:10;98625.53;;;26.72;59.88
21433;BME280;18592;49.708;10.900;2022-08-21T11:02:20;98629.31;;;26.92;59.89
21433;BME280;18592;49.708;10.900;2022-08-21T11:04:57;98623.50;;;27.13;60.06
21433;BME280;18592;49.708;10.900;2022-08-21T11:07:05;98621.66;;;27.32;59.97
21433;BME280;18592;49.708;10.900;2022-08-21T11:09:19;98612.94;;;27.49;59.19
21433;BME280;18592;49.708;10.900;2022-08-21T11:13:44;98605.31;;;27.81;59.15
21433;BME280;18592;49.708;10.900;2022-08-21T11:15:56;98611.00;;;28.00;59.02